Terminal Aerodrome Forecast
Issued by NWS Wilmington, OH

Current Version | Previous Version | Graphics & Text | Print | Product List | Glossary On
Versions: 1 2 3 4 5 6 7 8 9 10 11 12 13 14 15
000
FTUS41 KILN 202339
TAFDAY
TAF
KDAY 202339Z 2100/2124 VRB04KT P6SM SCT250
     FM210900 VRB03KT 5SM BR SKC
     FM211300 VRB03KT P6SM FEW035
     FM211600 VRB03KT P6SM SCT050=

USA.gov is the U.S. government's official web portal to all federal, state and local government web resources and services.